WetterOnline ( https://www.wetteronline.de )

Wetter aktuell Hoyerswerda

Aktuelles Wetter: Hoyerswerda (116m)

6-stündlich | Neueste Meldungen
Ortszeit Temperatur Wetter
Di, 04.10. 2:00 12.3° C bedeckt
Mo, 03.10. 20:00 13.4° C bewölkt
Mo, 03.10. 14:00 14.1° C bewölkt
Mo, 03.10. 8:00 10.9° C Sprühregen
Mo, 03.10. 2:00 9.8° C leicht bewölkt
So, 02.10. 20:00 10.6° C wolkig
So, 02.10. 14:00 17.2° C wolkig
So, 02.10. 8:00 11.0° C leichter Regen
Ortszeit Temperatur Wetter
Di, 04.10. 3:00 12.3° C bedeckt
Di, 04.10. 2:50 12.3° C bedeckt
Di, 04.10. 2:40 12.3° C bedeckt
Di, 04.10. 2:30 12.2° C bedeckt
Di, 04.10. 2:20 12.2° C bedeckt
Di, 04.10. 2:10 12.3° C bedeckt
Di, 04.10. 2:00 12.3° C bedeckt
Di, 04.10. 1:30 12.2° C bedeckt
Di, 04.10. 1:00 12.0° C bedeckt
Di, 04.10. 0:30 12.1° C leichter Regen
Di, 04.10. 0:00 12.5° C leichter Regen
Ortszeit Relative Feuchte Sichtweite
Di, 04.10. 2:00 92% 40 km
Mo, 03.10. 20:00 77% 55 km
Mo, 03.10. 14:00 67% 55 km
Mo, 03.10. 8:00 88% 19 km
Mo, 03.10. 2:00 93% 35 km
So, 02.10. 20:00 89% 50 km
So, 02.10. 14:00 63% 55 km
So, 02.10. 8:00 86% 30 km
Ortszeit Relative Feuchte Sichtweite
Di, 04.10. 3:00 91% 40 km
Di, 04.10. 2:50 91% -
Di, 04.10. 2:40 91% -
Di, 04.10. 2:30 92% 40 km
Di, 04.10. 2:20 92% -
Di, 04.10. 2:10 92% -
Di, 04.10. 2:00 92% 40 km
Di, 04.10. 1:30 93% 35 km
Di, 04.10. 1:00 93% 40 km
Di, 04.10. 0:30 92% 14 km
Di, 04.10. 0:00 90% 35 km
Ortszeit Niederschlagsmenge Niederschlagsart
Di, 04.10. 2:00 3 l/m2 in 6 Std. Regen
Mo, 03.10. 20:00 0.1 l/m2 in 12 Std. Regen
Mo, 03.10. 14:00 0.1 l/m2 in 6 Std. Regen
Mo, 03.10. 8:00 0.1 l/m2 in 12 Std. Regen
Mo, 03.10. 2:00 0.0 l/m2 in 6 Std. -
So, 02.10. 20:00 0.7 l/m2 in 12 Std. Regen
So, 02.10. 14:00 0.1 l/m2 in 6 Std. Regen
So, 02.10. 8:00 0.1 l/m2 in 12 Std. Regen
Ortszeit Niederschlagsmenge Niederschlagsart
Di, 04.10. 3:00 0.0 l/m2 in 1 Std. -
Di, 04.10. 2:50 keine Meldung -
Di, 04.10. 2:40 keine Meldung -
Di, 04.10. 2:30 0.0 l/m2 in 1 Std. -
Di, 04.10. 2:20 keine Meldung -
Di, 04.10. 2:10 keine Meldung -
Di, 04.10. 2:00 0.0 l/m2 in 1 Std. Regen
Di, 04.10. 1:30 0.0 l/m2 in 1 Std. -
Di, 04.10. 1:00 0.2 l/m2 in 1 Std. Regen
Di, 04.10. 0:30 0.2 l/m2 in 1 Std. -
Di, 04.10. 0:00 0.1 l/m2 in 1 Std. Regen
Ortszeit Stärke Spitze Richtung
km/h Bft. km/h Grad Sektor
Di, 04.10. 2:00 14 3 29 290° W
Mo, 03.10. 20:00 20 4 44 280° W
Mo, 03.10. 14:00 26 4 44 300° NW
Mo, 03.10. 8:00 19 3 39 280° W
Mo, 03.10. 2:00 17 3 26 270° W
So, 02.10. 20:00 7 2 43 270° W
So, 02.10. 14:00 25 4 43 270° W
So, 02.10. 8:00 17 3 30 240° SW
Ortszeit Stärke Spitze Richtung
km/h Bft. km/h Grad Sektor
Di, 04.10. 3:00 14 3 22 280° W
Di, 04.10. 2:50 14 3 - 280° W
Di, 04.10. 2:40 15 3 - 280° W
Di, 04.10. 2:30 15 3 20 280° W
Di, 04.10. 2:20 15 3 - 280° W
Di, 04.10. 2:10 14 3 - 280° W
Di, 04.10. 2:00 14 3 18 290° W
Di, 04.10. 1:30 11 2 18 280° W
Di, 04.10. 1:00 13 3 30 270° W
Di, 04.10. 0:30 19 3 30 290° W
Di, 04.10. 0:00 15 3 22 280° W
Ortszeit Untergrenze Bedeckung Gattung
total tief tief mittel hoch
Di, 04.10. 2:00 480 m 8/8 8/8 - - -
Mo, 03.10. 20:00 1110 m 7/8 7/8 - - -
Mo, 03.10. 14:00 840 m 7/8 7/8 - - -
Mo, 03.10. 8:00 450 m 8/8 8/8 - - -
Mo, 03.10. 2:00 420 m 2/8 2/8 - - -
So, 02.10. 20:00 1800 m 5/8 5/8 - - -
So, 02.10. 14:00 1140 m 7/8 3/8 - - -
So, 02.10. 8:00 1500 m 8/8 8/8 - - -
Ortszeit Bedeckungsgrad in Achtel und Wolkenuntergrenze
Di, 04.10. 3:00 5(450m) 8(1500m)
Di, 04.10. 2:50 5(450m) 8(1500m)
Di, 04.10. 2:40 8
Di, 04.10. 2:30 4(450m) 5(660m) 8(1800m)
Di, 04.10. 2:20 4(450m) 5(660m) 8(1800m)
Di, 04.10. 2:10 8
Di, 04.10. 2:00 6(480m) 7(660m) 8(1800m)
Di, 04.10. 1:30 7(450m) 8(1800m)
Di, 04.10. 1:00 2(510m) 3(930m) 8(1800m)
Di, 04.10. 0:30 1(570m) 4(960m) 8(1230m)
Di, 04.10. 0:00 3(540m) 7(1320m) 8(1800m)
Ortszeit Luftdruck NN (hPa) Tendenz (hPa in 3 Std.)
Di, 04.10. 2:00 1022 - 0,2
Mo, 03.10. 20:00 1022 0,0
Mo, 03.10. 14:00 1022 + 0,3
Mo, 03.10. 8:00 1020 + 0,9
Mo, 03.10. 2:00 1018 + 1,0
So, 02.10. 20:00 1016 + 1,8
So, 02.10. 14:00 1013 - 1,2
So, 02.10. 8:00 1015 + 0,7
Ortszeit Luftdruck NN (hPa) Tendenz (hPa in 3 Std.)
Di, 04.10. 3:00 1022 - 0,2
Di, 04.10. 2:50 1022 keine Meldung
Di, 04.10. 2:40 1022 keine Meldung
Di, 04.10. 2:30 1022 - 0,2
Di, 04.10. 2:20 1022 keine Meldung
Di, 04.10. 2:10 1022 keine Meldung
Di, 04.10. 2:00 1022 - 0,2
Di, 04.10. 1:30 1022 - 0,3
Di, 04.10. 1:00 1022 - 0,3
Di, 04.10. 0:30 1022 - 0,2
Di, 04.10. 0:00 1022 0,0
Ortszeit Schneehöhe (cm)
Di, 04.10. 2:00 0
Mo, 03.10. 20:00 0
Mo, 03.10. 14:00 0
Mo, 03.10. 8:00 0
Mo, 03.10. 2:00 0
So, 02.10. 20:00 0
So, 02.10. 14:00 0
So, 02.10. 8:00 0
Ortszeit Schneehöhe (cm)
Di, 04.10. 3:00 0
Di, 04.10. 2:50 0
Di, 04.10. 2:40 0
Di, 04.10. 2:30 0
Di, 04.10. 2:20 0
Di, 04.10. 2:10 0
Di, 04.10. 2:00 0
Di, 04.10. 1:30 0
Di, 04.10. 1:00 0
Di, 04.10. 0:30 0
Di, 04.10. 0:00 0
Link zu dieser Seite / Seite empfehlen

Das Wetter in ...